sensor_id;sensor_type;location;lat;lon;timestamp;pressure;altitude;pressure_sealevel;temperature
47484;BMP280;54076;50.322;18.650;2022-12-18T00:04:37;100588.27;;;-2.49
47484;BMP280;54076;50.322;18.650;2022-12-18T00:09:38;100597.10;;;-2.51
47484;BMP280;54076;50.322;18.650;2022-12-18T00:14:39;100597.74;;;-2.39
47484;BMP280;54076;50.322;18.650;2022-12-18T00:19:40;100597.07;;;-2.29
47484;BMP280;54076;50.322;18.650;2022-12-18T00:24:41;100598.91;;;-2.27
47484;BMP280;54076;50.322;18.650;2022-12-18T00:29:42;100601.64;;;-2.25
47484;BMP280;54076;50.322;18.650;2022-12-18T00:34:43;100611.81;;;-2.37
47484;BMP280;54076;50.322;18.650;2022-12-18T00:39:44;100613.70;;;-2.31
47484;BMP280;54076;50.322;18.650;2022-12-18T00:44:45;100623.08;;;-2.12
47484;BMP280;54076;50.322;18.650;2022-12-18T00:49:46;100630.40;;;-2.25
47484;BMP280;54076;50.322;18.650;2022-12-18T00:54:47;100645.90;;;-2.27
47484;BMP280;54076;50.322;18.650;2022-12-18T00:59:48;100643.90;;;-2.12
47484;BMP280;54076;50.322;18.650;2022-12-18T01:04:49;100650.79;;;-2.20
47484;BMP280;54076;50.322;18.650;2022-12-18T01:09:50;100661.48;;;-2.17
47484;BMP280;54076;50.322;18.650;2022-12-18T01:14:51;100660.96;;;-2.19
47484;BMP280;54076;50.322;18.650;2022-12-18T01:19:52;100660.45;;;-2.22
47484;BMP280;54076;50.322;18.650;2022-12-18T01:24:54;100659.92;;;-2.15
47484;BMP280;54076;50.322;18.650;2022-12-18T01:29:55;100663.74;;;-2.22
47484;BMP280;54076;50.322;18.650;2022-12-18T01:34:56;100669.02;;;-2.19
47484;BMP280;54076;50.322;18.650;2022-12-18T01:39:57;100668.13;;;-2.20
47484;BMP280;54076;50.322;18.650;2022-12-18T01:55:24;100687.75;;;-2.39
47484;BMP280;54076;50.322;18.650;2022-12-18T02:00:27;100694.73;;;-2.51
47484;BMP280;54076;50.322;18.650;2022-12-18T02:17:10;100715.77;;;-2.55
47484;BMP280;54076;50.322;18.650;2022-12-18T02:27:36;100729.83;;;-2.68
47484;BMP280;54076;50.322;18.650;2022-12-18T02:32:44;100733.13;;;-2.74
47484;BMP280;54076;50.322;18.650;2022-12-18T02:37:47;100739.05;;;-2.62
47484;BMP280;54076;50.322;18.650;2022-12-18T02:42:48;100732.77;;;-2.52
47484;BMP280;54076;50.322;18.650;2022-12-18T02:47:50;100742.96;;;-2.54
47484;BMP280;54076;50.322;18.650;2022-12-18T02:53:06;100744.51;;;-2.61
47484;BMP280;54076;50.322;18.650;2022-12-18T03:04:26;100771.60;;;-2.56
47484;BMP280;54076;50.322;18.650;2022-12-18T03:09:36;100778.80;;;-2.56
47484;BMP280;54076;50.322;18.650;2022-12-18T03:14:40;100782.13;;;-2.47
47484;BMP280;54076;50.322;18.650;2022-12-18T03:19:43;100783.12;;;-2.58
47484;BMP280;54076;50.322;18.650;2022-12-18T03:24:48;100784.21;;;-2.66
47484;BMP280;54076;50.322;18.650;2022-12-18T03:30:12;100791.99;;;-2.63
47484;BMP280;54076;50.322;18.650;2022-12-18T03:35:21;100792.75;;;-2.54
47484;BMP280;54076;50.322;18.650;2022-12-18T03:45:57;100806.13;;;-2.46
47484;BMP280;54076;50.322;18.650;2022-12-18T03:51:14;100800.20;;;-2.61
47484;BMP280;54076;50.322;18.650;2022-12-18T03:56:20;100805.86;;;-2.62
47484;BMP280;54076;50.322;18.650;2022-12-18T04:01:37;100816.60;;;-2.32
47484;BMP280;54076;50.322;18.650;2022-12-18T04:06:41;100821.80;;;-2.59
47484;BMP280;54076;50.322;18.650;2022-12-18T04:11:43;100828.77;;;-2.64
47484;BMP280;54076;50.322;18.650;2022-12-18T04:16:47;100831.14;;;-2.54
47484;BMP280;54076;50.322;18.650;2022-12-18T04:21:48;100837.48;;;-2.75
47484;BMP280;54076;50.322;18.650;2022-12-18T04:26:49;100838.96;;;-2.56
47484;BMP280;54076;50.322;18.650;2022-12-18T04:31:50;100843.21;;;-2.52
47484;BMP280;54076;50.322;18.650;2022-12-18T04:36:51;100849.30;;;-2.64
47484;BMP280;54076;50.322;18.650;2022-12-18T04:41:52;100846.46;;;-2.66
47484;BMP280;54076;50.322;18.650;2022-12-18T04:46:53;100847.96;;;-2.58
47484;BMP280;54076;50.322;18.650;2022-12-18T04:51:54;100860.27;;;-2.77
47484;BMP280;54076;50.322;18.650;2022-12-18T04:56:55;100871.51;;;-2.51
47484;BMP280;54076;50.322;18.650;2022-12-18T05:01:56;100884.95;;;-2.55
47484;BMP280;54076;50.322;18.650;2022-12-18T05:06:57;100891.95;;;-2.74
47484;BMP280;54076;50.322;18.650;2022-12-18T05:11:58;100885.94;;;-2.65
47484;BMP280;54076;50.322;18.650;2022-12-18T05:16:59;100890.09;;;-2.49
47484;BMP280;54076;50.322;18.650;2022-12-18T05:22:00;100900.93;;;-2.61
47484;BMP280;54076;50.322;18.650;2022-12-18T05:27:02;100905.67;;;-2.56
47484;BMP280;54076;50.322;18.650;2022-12-18T05:32:03;100898.69;;;-2.55
47484;BMP280;54076;50.322;18.650;2022-12-18T05:37:05;100900.15;;;-2.57
47484;BMP280;54076;50.322;18.650;2022-12-18T05:42:05;100907.89;;;-2.56
47484;BMP280;54076;50.322;18.650;2022-12-18T05:47:06;100911.44;;;-2.57
47484;BMP280;54076;50.322;18.650;2022-12-18T05:52:08;100928.23;;;-2.48
47484;BMP280;54076;50.322;18.650;2022-12-18T05:57:09;100933.45;;;-2.70
47484;BMP280;54076;50.322;18.650;2022-12-18T06:02:11;100933.58;;;-2.82
47484;BMP280;54076;50.322;18.650;2022-12-18T06:07:12;100932.37;;;-2.40
47484;BMP280;54076;50.322;18.650;2022-12-18T06:12:13;100935.59;;;-2.62
47484;BMP280;54076;50.322;18.650;2022-12-18T06:17:14;100936.23;;;-2.73
47484;BMP280;54076;50.322;18.650;2022-12-18T06:22:15;100940.91;;;-2.54
47484;BMP280;54076;50.322;18.650;2022-12-18T06:27:17;100945.27;;;-2.60
47484;BMP280;54076;50.322;18.650;2022-12-18T06:32:18;100965.93;;;-2.79
47484;BMP280;54076;50.322;18.650;2022-12-18T06:37:19;100971.50;;;-2.92
47484;BMP280;54076;50.322;18.650;2022-12-18T06:42:20;100977.27;;;-2.88
47484;BMP280;54076;50.322;18.650;2022-12-18T06:47:21;100987.60;;;-2.73
47484;BMP280;54076;50.322;18.650;2022-12-18T06:52:22;100991.09;;;-2.68
47484;BMP280;54076;50.322;18.650;2022-12-18T06:57:23;100994.23;;;-2.69
47484;BMP280;54076;50.322;18.650;2022-12-18T07:02:24;100994.25;;;-2.91
47484;BMP280;54076;50.322;18.650;2022-12-18T07:07:25;101001.84;;;-2.78
47484;BMP280;54076;50.322;18.650;2022-12-18T07:12:29;101001.32;;;-2.73
47484;BMP280;54076;50.322;18.650;2022-12-18T07:17:30;101013.11;;;-2.66
47484;BMP280;54076;50.322;18.650;2022-12-18T07:22:31;101020.85;;;-2.73
47484;BMP280;54076;50.322;18.650;2022-12-18T07:27:32;101022.21;;;-2.75
47484;BMP280;54076;50.322;18.650;2022-12-18T07:32:33;101025.80;;;-2.58
47484;BMP280;54076;50.322;18.650;2022-12-18T07:37:35;101024.64;;;-2.68
47484;BMP280;54076;50.322;18.650;2022-12-18T07:42:36;101030.63;;;-2.79
47484;BMP280;54076;50.322;18.650;2022-12-18T07:47:37;101036.67;;;-2.59
47484;BMP280;54076;50.322;18.650;2022-12-18T07:52:39;101037.63;;;-2.62
47484;BMP280;54076;50.322;18.650;2022-12-18T07:57:39;101040.92;;;-2.37
47484;BMP280;54076;50.322;18.650;2022-12-18T08:02:41;101038.45;;;-2.55
47484;BMP280;54076;50.322;18.650;2022-12-18T08:07:42;101044.55;;;-2.34
47484;BMP280;54076;50.322;18.650;2022-12-18T08:12:43;101040.16;;;-2.22
47484;BMP280;54076;50.322;18.650;2022-12-18T08:17:44;101048.36;;;-2.08
47484;BMP280;54076;50.322;18.650;2022-12-18T08:22:45;101046.77;;;-1.85
47484;BMP280;54076;50.322;18.650;2022-12-18T08:27:46;101057.02;;;-1.86
47484;BMP280;54076;50.322;18.650;2022-12-18T08:32:51;101063.91;;;-1.89
47484;BMP280;54076;50.322;18.650;2022-12-18T08:37:53;101067.23;;;-2.17
47484;BMP280;54076;50.322;18.650;2022-12-18T08:42:54;101074.71;;;-2.11
47484;BMP280;54076;50.322;18.650;2022-12-18T08:48:14;101079.17;;;-1.94
47484;BMP280;54076;50.322;18.650;2022-12-18T08:53:15;101092.22;;;-2.17
47484;BMP280;54076;50.322;18.650;2022-12-18T08:58:16;101099.85;;;-2.01
47484;BMP280;54076;50.322;18.650;2022-12-18T09:03:19;101108.33;;;-1.87
47484;BMP280;54076;50.322;18.650;2022-12-18T09:08:20;101106.52;;;-1.85
47484;BMP280;54076;50.322;18.650;2022-12-18T09:13:22;101109.63;;;-2.03
47484;BMP280;54076;50.322;18.650;2022-12-18T09:18:26;101108.73;;;-1.64
47484;BMP280;54076;50.322;18.650;2022-12-18T09:23:27;101106.48;;;-1.61
47484;BMP280;54076;50.322;18.650;2022-12-18T09:28:28;101120.10;;;-1.77
47484;BMP280;54076;50.322;18.650;2022-12-18T09:33:29;101108.24;;;-1.48
47484;BMP280;54076;50.322;18.650;2022-12-18T09:38:30;101109.13;;;-1.38
47484;BMP280;54076;50.322;18.650;2022-12-18T09:43:47;101110.13;;;-1.45
47484;BMP280;54076;50.322;18.650;2022-12-18T09:48:51;101112.86;;;-1.30
47484;BMP280;54076;50.322;18.650;2022-12-18T09:54:03;101111.12;;;-1.09
47484;BMP280;54076;50.322;18.650;2022-12-18T09:59:32;101109.05;;;-1.03
47484;BMP280;54076;50.322;18.650;2022-12-18T10:04:35;101111.02;;;-0.80
47484;BMP280;54076;50.322;18.650;2022-12-18T10:15:19;101104.23;;;-0.61
47484;BMP280;54076;50.322;18.650;2022-12-18T10:26:15;101087.21;;;-0.81
47484;BMP280;54076;50.322;18.650;2022-12-18T10:31:23;101092.14;;;-0.74
47484;BMP280;54076;50.322;18.650;2022-12-18T10:36:25;101084.57;;;-0.50
47484;BMP280;54076;50.322;18.650;2022-12-18T10:41:27;101084.02;;;0.45
47484;BMP280;54076;50.322;18.650;2022-12-18T10:46:28;101080.34;;;1.14
47484;BMP280;54076;50.322;18.650;2022-12-18T10:51:36;101078.21;;;1.83
47484;BMP280;54076;50.322;18.650;2022-12-18T10:56:38;101070.82;;;2.45
47484;BMP280;54076;50.322;18.650;2022-12-18T11:01:55;101059.05;;;3.23
47484;BMP280;54076;50.322;18.650;2022-12-18T11:07:08;101036.88;;;3.18
47484;BMP280;54076;50.322;18.650;2022-12-18T11:17:32;101045.19;;;3.87
47484;BMP280;54076;50.322;18.650;2022-12-18T11:22:36;101039.80;;;3.55
47484;BMP280;54076;50.322;18.650;2022-12-18T11:38:45;101059.48;;;4.19
47484;BMP280;54076;50.322;18.650;2022-12-18T11:43:59;101060.41;;;4.49
47484;BMP280;54076;50.322;18.650;2022-12-18T11:49:10;101069.00;;;4.43
47484;BMP280;54076;50.322;18.650;2022-12-18T11:54:15;101062.29;;;3.70
47484;BMP280;54076;50.322;18.650;2022-12-18T12:05:05;101067.52;;;4.07
47484;BMP280;54076;50.322;18.650;2022-12-18T12:21:53;101065.95;;;4.00
47484;BMP280;54076;50.322;18.650;2022-12-18T12:38:40;101085.48;;;3.30
47484;BMP280;54076;50.322;18.650;2022-12-18T12:43:47;101084.69;;;2.99
47484;BMP280;54076;50.322;18.650;2022-12-18T12:48:54;101088.00;;;2.81
47484;BMP280;54076;50.322;18.650;2022-12-18T12:53:58;101079.21;;;2.54
47484;BMP280;54076;50.322;18.650;2022-12-18T13:25:59;101102.09;;;-0.01
47484;BMP280;54076;50.322;18.650;2022-12-18T13:31:01;101097.04;;;-0.30
47484;BMP280;54076;50.322;18.650;2022-12-18T13:46:23;101099.73;;;-0.65
47484;BMP280;54076;50.322;18.650;2022-12-18T13:51:24;101098.39;;;-0.80
47484;BMP280;54076;50.322;18.650;2022-12-18T13:56:32;101092.14;;;-0.96
47484;BMP280;54076;50.322;18.650;2022-12-18T14:01:34;101086.48;;;-1.26
47484;BMP280;54076;50.322;18.650;2022-12-18T14:06:35;101090.74;;;-1.36
47484;BMP280;54076;50.322;18.650;2022-12-18T14:11:37;101095.30;;;-1.52
47484;BMP280;54076;50.322;18.650;2022-12-18T14:16:40;101096.79;;;-1.64
47484;BMP280;54076;50.322;18.650;2022-12-18T14:21:49;101091.70;;;-1.81
47484;BMP280;54076;50.322;18.650;2022-12-18T14:26:51;101103.09;;;-1.80
47484;BMP280;54076;50.322;18.650;2022-12-18T14:32:12;101096.81;;;-1.85
47484;BMP280;54076;50.322;18.650;2022-12-18T14:37:20;101093.63;;;-2.11
47484;BMP280;54076;50.322;18.650;2022-12-18T14:42:21;101101.23;;;-2.24
47484;BMP280;54076;50.322;18.650;2022-12-18T14:47:22;101112.40;;;-2.30
47484;BMP280;54076;50.322;18.650;2022-12-18T14:52:29;101119.55;;;-2.36
47484;BMP280;54076;50.322;18.650;2022-12-18T14:57:36;101132.09;;;-2.41
47484;BMP280;54076;50.322;18.650;2022-12-18T15:02:38;101136.56;;;-2.57
47484;BMP280;54076;50.322;18.650;2022-12-18T15:07:51;101138.23;;;-2.59
47484;BMP280;54076;50.322;18.650;2022-12-18T15:17:58;101150.98;;;-2.87
47484;BMP280;54076;50.322;18.650;2022-12-18T15:23:02;101149.67;;;-2.94
47484;BMP280;54076;50.322;18.650;2022-12-18T15:28:17;101145.38;;;-2.97
47484;BMP280;54076;50.322;18.650;2022-12-18T15:33:26;101160.80;;;-3.03
47484;BMP280;54076;50.322;18.650;2022-12-18T15:38:27;101161.42;;;-3.22
47484;BMP280;54076;50.322;18.650;2022-12-18T15:43:28;101164.88;;;-3.25
47484;BMP280;54076;50.322;18.650;2022-12-18T15:48:44;101183.59;;;-3.39
47484;BMP280;54076;50.322;18.650;2022-12-18T15:53:47;101188.50;;;-3.48
47484;BMP280;54076;50.322;18.650;2022-12-18T15:58:49;101187.69;;;-3.53
47484;BMP280;54076;50.322;18.650;2022-12-18T16:03:50;101186.92;;;-3.66
47484;BMP280;54076;50.322;18.650;2022-12-18T16:08:51;101183.73;;;-3.76
47484;BMP280;54076;50.322;18.650;2022-12-18T16:13:52;101185.05;;;-3.73
47484;BMP280;54076;50.322;18.650;2022-12-18T16:18:53;101198.61;;;-3.73
47484;BMP280;54076;50.322;18.650;2022-12-18T16:23:54;101200.34;;;-4.03
47484;BMP280;54076;50.322;18.650;2022-12-18T16:28:55;101186.75;;;-4.34
47484;BMP280;54076;50.322;18.650;2022-12-18T16:34:26;101185.55;;;-4.29
47484;BMP280;54076;50.322;18.650;2022-12-18T16:39:28;101184.86;;;-4.46
47484;BMP280;54076;50.322;18.650;2022-12-18T16:44:30;101182.01;;;-4.45
47484;BMP280;54076;50.322;18.650;2022-12-18T16:49:32;101181.59;;;-4.50
47484;BMP280;54076;50.322;18.650;2022-12-18T16:54:33;101173.33;;;-4.77
47484;BMP280;54076;50.322;18.650;2022-12-18T16:59:36;101169.09;;;-4.78
47484;BMP280;54076;50.322;18.650;2022-12-18T17:04:37;101162.79;;;-4.76
47484;BMP280;54076;50.322;18.650;2022-12-18T17:09:38;101140.12;;;-4.74
47484;BMP280;54076;50.322;18.650;2022-12-18T17:14:39;101139.17;;;-4.62
47484;BMP280;54076;50.322;18.650;2022-12-18T17:19:40;101140.20;;;-4.70
47484;BMP280;54076;50.322;18.650;2022-12-18T17:24:41;101142.63;;;-4.64
47484;BMP280;54076;50.322;18.650;2022-12-18T17:29:42;101133.36;;;-4.77
47484;BMP280;54076;50.322;18.650;2022-12-18T17:34:44;101147.04;;;-4.62
47484;BMP280;54076;50.322;18.650;2022-12-18T17:39:45;101150.20;;;-4.77
47484;BMP280;54076;50.322;18.650;2022-12-18T17:44:46;101157.23;;;-4.98
47484;BMP280;54076;50.322;18.650;2022-12-18T17:49:47;101150.17;;;-5.20
47484;BMP280;54076;50.322;18.650;2022-12-18T17:54:48;101153.02;;;-5.18
47484;BMP280;54076;50.322;18.650;2022-12-18T17:59:49;101159.10;;;-5.15
47484;BMP280;54076;50.322;18.650;2022-12-18T18:04:50;101161.69;;;-5.19
47484;BMP280;54076;50.322;18.650;2022-12-18T18:09:51;101163.81;;;-5.17
47484;BMP280;54076;50.322;18.650;2022-12-18T18:14:52;101160.61;;;-5.24
47484;BMP280;54076;50.322;18.650;2022-12-18T18:19:53;101160.21;;;-5.25
47484;BMP280;54076;50.322;18.650;2022-12-18T18:24:54;101162.49;;;-5.14
47484;BMP280;54076;50.322;18.650;2022-12-18T18:29:55;101164.80;;;-5.15
47484;BMP280;54076;50.322;18.650;2022-12-18T18:34:56;101162.96;;;-5.16
47484;BMP280;54076;50.322;18.650;2022-12-18T18:39:57;101161.36;;;-5.15
47484;BMP280;54076;50.322;18.650;2022-12-18T18:44:58;101171.72;;;-5.15
47484;BMP280;54076;50.322;18.650;2022-12-18T18:49:59;101185.58;;;-5.35
47484;BMP280;54076;50.322;18.650;2022-12-18T18:55:00;101205.33;;;-5.41
47484;BMP280;54076;50.322;18.650;2022-12-18T19:00:01;101210.96;;;-5.38
47484;BMP280;54076;50.322;18.650;2022-12-18T19:05:03;101203.59;;;-5.39
47484;BMP280;54076;50.322;18.650;2022-12-18T19:10:05;101198.06;;;-5.40
47484;BMP280;54076;50.322;18.650;2022-12-18T19:15:08;101202.69;;;-5.33
47484;BMP280;54076;50.322;18.650;2022-12-18T19:20:09;101205.04;;;-5.52
47484;BMP280;54076;50.322;18.650;2022-12-18T19:25:10;101209.56;;;-5.68
47484;BMP280;54076;50.322;18.650;2022-12-18T19:30:11;101213.73;;;-5.78
47484;BMP280;54076;50.322;18.650;2022-12-18T19:35:12;101225.29;;;-5.71
47484;BMP280;54076;50.322;18.650;2022-12-18T19:40:13;101214.98;;;-5.77
47484;BMP280;54076;50.322;18.650;2022-12-18T19:45:15;101207.96;;;-5.70
47484;BMP280;54076;50.322;18.650;2022-12-18T19:50:16;101194.00;;;-5.78
47484;BMP280;54076;50.322;18.650;2022-12-18T19:55:17;101206.44;;;-5.83
47484;BMP280;54076;50.322;18.650;2022-12-18T20:00:18;101201.00;;;-5.86
47484;BMP280;54076;50.322;18.650;2022-12-18T20:05:19;101200.27;;;-5.88
47484;BMP280;54076;50.322;18.650;2022-12-18T20:10:24;101196.23;;;-6.11
47484;BMP280;54076;50.322;18.650;2022-12-18T20:15:25;101198.08;;;-6.07
47484;BMP280;54076;50.322;18.650;2022-12-18T20:20:27;101198.63;;;-6.09
47484;BMP280;54076;50.322;18.650;2022-12-18T20:25:28;101202.23;;;-6.38
47484;BMP280;54076;50.322;18.650;2022-12-18T20:30:29;101187.35;;;-6.28
47484;BMP280;54076;50.322;18.650;2022-12-18T20:35:33;101180.86;;;-6.46
47484;BMP280;54076;50.322;18.650;2022-12-18T20:40:34;101185.98;;;-6.48
47484;BMP280;54076;50.322;18.650;2022-12-18T20:45:35;101183.23;;;-6.52
47484;BMP280;54076;50.322;18.650;2022-12-18T20:50:37;101179.77;;;-6.32
47484;BMP280;54076;50.322;18.650;2022-12-18T20:55:41;101173.13;;;-6.31
47484;BMP280;54076;50.322;18.650;2022-12-18T21:00:43;101177.02;;;-6.36
47484;BMP280;54076;50.322;18.650;2022-12-18T21:05:44;101168.17;;;-6.18
47484;BMP280;54076;50.322;18.650;2022-12-18T21:10:45;101168.73;;;-6.45
47484;BMP280;54076;50.322;18.650;2022-12-18T21:15:46;101167.05;;;-6.35
47484;BMP280;54076;50.322;18.650;2022-12-18T21:20:47;101172.98;;;-6.43
47484;BMP280;54076;50.322;18.650;2022-12-18T21:25:48;101167.59;;;-6.68
47484;BMP280;54076;50.322;18.650;2022-12-18T21:30:49;101157.95;;;-6.82
47484;BMP280;54076;50.322;18.650;2022-12-18T21:35:50;101158.45;;;-6.64
47484;BMP280;54076;50.322;18.650;2022-12-18T21:40:51;101167.63;;;-6.57
47484;BMP280;54076;50.322;18.650;2022-12-18T21:45:55;101164.73;;;-6.50
47484;BMP280;54076;50.322;18.650;2022-12-18T21:50:56;101168.19;;;-6.39
47484;BMP280;54076;50.322;18.650;2022-12-18T21:55:58;101158.34;;;-6.39
47484;BMP280;54076;50.322;18.650;2022-12-18T22:00:59;101165.20;;;-6.36
47484;BMP280;54076;50.322;18.650;2022-12-18T22:06:00;101161.42;;;-6.41
47484;BMP280;54076;50.322;18.650;2022-12-18T22:11:01;101163.45;;;-6.41
47484;BMP280;54076;50.322;18.650;2022-12-18T22:16:02;101162.61;;;-6.32
47484;BMP280;54076;50.322;18.650;2022-12-18T22:21:04;101159.15;;;-6.35
47484;BMP280;54076;50.322;18.650;2022-12-18T22:26:07;101160.67;;;-6.35
47484;BMP280;54076;50.322;18.650;2022-12-18T22:31:09;101165.70;;;-6.41
47484;BMP280;54076;50.322;18.650;2022-12-18T22:36:10;101162.30;;;-6.33
47484;BMP280;54076;50.322;18.650;2022-12-18T22:41:11;101159.10;;;-6.33
47484;BMP280;54076;50.322;18.650;2022-12-18T22:46:17;101154.30;;;-6.35
47484;BMP280;54076;50.322;18.650;2022-12-18T22:51:19;101151.92;;;-6.24
47484;BMP280;54076;50.322;18.650;2022-12-18T22:56:20;101153.25;;;-6.33
47484;BMP280;54076;50.322;18.650;2022-12-18T23:01:25;101156.73;;;-6.26
47484;BMP280;54076;50.322;18.650;2022-12-18T23:06:27;101157.80;;;-6.27
47484;BMP280;54076;50.322;18.650;2022-12-18T23:11:28;101163.59;;;-6.42
47484;BMP280;54076;50.322;18.650;2022-12-18T23:16:29;101166.58;;;-6.33
47484;BMP280;54076;50.322;18.650;2022-12-18T23:21:30;101151.44;;;-6.41
47484;BMP280;54076;50.322;18.650;2022-12-18T23:26:32;101155.14;;;-6.48
47484;BMP280;54076;50.322;18.650;2022-12-18T23:31:36;101150.64;;;-6.50
47484;BMP280;54076;50.322;18.650;2022-12-18T23:36:38;101149.88;;;-6.48
47484;BMP280;54076;50.322;18.650;2022-12-18T23:41:39;101142.77;;;-6.41
47484;BMP280;54076;50.322;18.650;2022-12-18T23:46:40;101121.88;;;-6.32
47484;BMP280;54076;50.322;18.650;2022-12-18T23:51:41;101108.60;;;-6.30
47484;BMP280;54076;50.322;18.650;2022-12-18T23:56:42;101100.02;;;-6.40
